sensor_id;sensor_type;location;lat;lon;timestamp;P1;durP1;ratioP1;P2;durP2;ratioP2
40290;SDS011;26000;48.304;13.626;2023-03-31T00:01:32;6.32;;;3.90;;
40290;SDS011;26000;48.304;13.626;2023-03-31T00:03:58;9.68;;;4.18;;
40290;SDS011;26000;48.304;13.626;2023-03-31T00:06:35;9.20;;;4.28;;
40290;SDS011;26000;48.304;13.626;2023-03-31T00:09:03;6.40;;;3.97;;
40290;SDS011;26000;48.304;13.626;2023-03-31T00:11:30;6.13;;;4.00;;
40290;SDS011;26000;48.304;13.626;2023-03-31T00:13:56;5.80;;;3.83;;
40290;SDS011;26000;48.304;13.626;2023-03-31T00:16:22;9.82;;;4.05;;
40290;SDS011;26000;48.304;13.626;2023-03-31T00:18:47;5.72;;;3.85;;
40290;SDS011;26000;48.304;13.626;2023-03-31T00:21:15;6.38;;;3.90;;
40290;SDS011;26000;48.304;13.626;2023-03-31T00:23:49;7.63;;;4.30;;
40290;SDS011;26000;48.304;13.626;2023-03-31T00:26:17;5.68;;;3.42;;
40290;SDS011;26000;48.304;13.626;2023-03-31T00:28:42;7.35;;;3.50;;
40290;SDS011;26000;48.304;13.626;2023-03-31T00:31:08;6.13;;;3.70;;
40290;SDS011;26000;48.304;13.626;2023-03-31T00:33:33;5.18;;;3.53;;
40290;SDS011;26000;48.304;13.626;2023-03-31T00:35:59;5.93;;;3.67;;
40290;SDS011;26000;48.304;13.626;2023-03-31T00:38:26;5.43;;;3.75;;
40290;SDS011;26000;48.304;13.626;2023-03-31T00:40:54;6.75;;;3.55;;
40290;SDS011;26000;48.304;13.626;2023-03-31T00:43:38;7.03;;;3.53;;
40290;SDS011;26000;48.304;13.626;2023-03-31T00:46:14;8.90;;;3.80;;
40290;SDS011;26000;48.304;13.626;2023-03-31T00:48:48;5.28;;;3.40;;
40290;SDS011;26000;48.304;13.626;2023-03-31T00:51:16;6.00;;;3.42;;
40290;SDS011;26000;48.304;13.626;2023-03-31T00:53:43;6.07;;;4.20;;
40290;SDS011;26000;48.304;13.626;2023-03-31T00:56:12;5.72;;;3.78;;
40290;SDS011;26000;48.304;13.626;2023-03-31T00:58:40;6.20;;;3.70;;
40290;SDS011;26000;48.304;13.626;2023-03-31T01:01:11;7.18;;;3.95;;
40290;SDS011;26000;48.304;13.626;2023-03-31T01:03:41;9.80;;;4.43;;
40290;SDS011;26000;48.304;13.626;2023-03-31T01:06:09;7.57;;;4.25;;
40290;SDS011;26000;48.304;13.626;2023-03-31T01:08:35;7.32;;;4.03;;
40290;SDS011;26000;48.304;13.626;2023-03-31T01:11:03;7.15;;;4.55;;
40290;SDS011;26000;48.304;13.626;2023-03-31T01:13:31;8.45;;;4.07;;
40290;SDS011;26000;48.304;13.626;2023-03-31T01:16:00;9.23;;;4.72;;
40290;SDS011;26000;48.304;13.626;2023-03-31T01:18:26;6.60;;;4.45;;
40290;SDS011;26000;48.304;13.626;2023-03-31T01:26:27;9.10;;;4.70;;
40290;SDS011;26000;48.304;13.626;2023-03-31T01:32:07;9.13;;;4.53;;
40290;SDS011;26000;48.304;13.626;2023-03-31T01:48:42;8.15;;;4.40;;
40290;SDS011;26000;48.304;13.626;2023-03-31T01:51:18;4.82;;;4.15;;
40290;SDS011;26000;48.304;13.626;2023-03-31T01:56:20;7.00;;;4.53;;
40290;SDS011;26000;48.304;13.626;2023-03-31T02:03:54;7.60;;;4.10;;
40290;SDS011;26000;48.304;13.626;2023-03-31T02:06:25;8.52;;;4.57;;
40290;SDS011;26000;48.304;13.626;2023-03-31T02:08:56;7.18;;;5.05;;
40290;SDS011;26000;48.304;13.626;2023-03-31T02:11:28;9.43;;;5.47;;
40290;SDS011;26000;48.304;13.626;2023-03-31T02:13:56;9.00;;;4.85;;
40290;SDS011;26000;48.304;13.626;2023-03-31T02:16:26;6.50;;;4.85;;
40290;SDS011;26000;48.304;13.626;2023-03-31T02:18:56;8.43;;;4.75;;
40290;SDS011;26000;48.304;13.626;2023-03-31T02:21:27;6.50;;;5.00;;
40290;SDS011;26000;48.304;13.626;2023-03-31T02:23:55;7.25;;;4.43;;
40290;SDS011;26000;48.304;13.626;2023-03-31T02:26:26;7.15;;;4.68;;
40290;SDS011;26000;48.304;13.626;2023-03-31T02:28:55;8.55;;;5.65;;
40290;SDS011;26000;48.304;13.626;2023-03-31T02:34:16;9.00;;;5.47;;
40290;SDS011;26000;48.304;13.626;2023-03-31T02:36:42;6.60;;;5.00;;
40290;SDS011;26000;48.304;13.626;2023-03-31T02:39:11;7.47;;;5.20;;
40290;SDS011;26000;48.304;13.626;2023-03-31T02:41:43;9.63;;;5.32;;
40290;SDS011;26000;48.304;13.626;2023-03-31T02:44:09;9.13;;;4.85;;
40290;SDS011;26000;48.304;13.626;2023-03-31T02:46:35;7.20;;;5.13;;
40290;SDS011;26000;48.304;13.626;2023-03-31T02:49:02;8.00;;;5.68;;
40290;SDS011;26000;48.304;13.626;2023-03-31T03:00:08;9.10;;;5.60;;
40290;SDS011;26000;48.304;13.626;2023-03-31T03:05:52;13.52;;;8.20;;
40290;SDS011;26000;48.304;13.626;2023-03-31T03:17:01;12.98;;;6.93;;
40290;SDS011;26000;48.304;13.626;2023-03-31T03:19:31;9.63;;;6.95;;
40290;SDS011;26000;48.304;13.626;2023-03-31T03:21:56;10.13;;;7.00;;
40290;SDS011;26000;48.304;13.626;2023-03-31T03:24:22;10.40;;;6.55;;
40290;SDS011;26000;48.304;13.626;2023-03-31T03:26:53;11.48;;;7.10;;
40290;SDS011;26000;48.304;13.626;2023-03-31T03:29:19;10.02;;;6.85;;
40290;SDS011;26000;48.304;13.626;2023-03-31T03:31:45;10.85;;;6.47;;
40290;SDS011;26000;48.304;13.626;2023-03-31T03:34:10;8.73;;;6.00;;
40290;SDS011;26000;48.304;13.626;2023-03-31T03:36:36;6.53;;;5.82;;
40290;SDS011;26000;48.304;13.626;2023-03-31T03:39:03;7.65;;;5.38;;
40290;SDS011;26000;48.304;13.626;2023-03-31T03:41:30;7.72;;;5.28;;
40290;SDS011;26000;48.304;13.626;2023-03-31T03:43:57;6.97;;;4.40;;
40290;SDS011;26000;48.304;13.626;2023-03-31T03:46:24;5.88;;;4.68;;
40290;SDS011;26000;48.304;13.626;2023-03-31T03:48:49;6.25;;;4.95;;
40290;SDS011;26000;48.304;13.626;2023-03-31T03:51:15;8.38;;;5.10;;
40290;SDS011;26000;48.304;13.626;2023-03-31T03:53:41;5.90;;;4.78;;
40290;SDS011;26000;48.304;13.626;2023-03-31T03:56:06;6.88;;;5.18;;
40290;SDS011;26000;48.304;13.626;2023-03-31T03:58:32;6.88;;;5.00;;
40290;SDS011;26000;48.304;13.626;2023-03-31T04:00:58;9.30;;;5.25;;
40290;SDS011;26000;48.304;13.626;2023-03-31T04:03:23;7.60;;;5.10;;
40290;SDS011;26000;48.304;13.626;2023-03-31T04:05:49;6.55;;;4.95;;
40290;SDS011;26000;48.304;13.626;2023-03-31T04:08:15;6.78;;;5.07;;
40290;SDS011;26000;48.304;13.626;2023-03-31T04:10:45;6.28;;;4.65;;
40290;SDS011;26000;48.304;13.626;2023-03-31T04:13:13;7.68;;;4.68;;
40290;SDS011;26000;48.304;13.626;2023-03-31T04:15:44;6.50;;;4.82;;
40290;SDS011;26000;48.304;13.626;2023-03-31T04:18:11;7.72;;;4.55;;
40290;SDS011;26000;48.304;13.626;2023-03-31T04:20:47;6.82;;;4.65;;
40290;SDS011;26000;48.304;13.626;2023-03-31T04:23:31;6.93;;;4.88;;
40290;SDS011;26000;48.304;13.626;2023-03-31T04:25:58;6.55;;;4.93;;
40290;SDS011;26000;48.304;13.626;2023-03-31T04:28:24;6.35;;;4.75;;
40290;SDS011;26000;48.304;13.626;2023-03-31T04:30:58;7.57;;;5.50;;
40290;SDS011;26000;48.304;13.626;2023-03-31T04:33:27;6.97;;;5.07;;
40290;SDS011;26000;48.304;13.626;2023-03-31T04:35:53;6.70;;;4.60;;
40290;SDS011;26000;48.304;13.626;2023-03-31T04:38:22;5.55;;;4.68;;
40290;SDS011;26000;48.304;13.626;2023-03-31T04:40:51;7.57;;;5.13;;
40290;SDS011;26000;48.304;13.626;2023-03-31T04:43:18;8.88;;;4.78;;
40290;SDS011;26000;48.304;13.626;2023-03-31T04:45:44;7.03;;;5.05;;
40290;SDS011;26000;48.304;13.626;2023-03-31T04:48:10;6.78;;;4.78;;
40290;SDS011;26000;48.304;13.626;2023-03-31T04:50:36;7.20;;;5.13;;
40290;SDS011;26000;48.304;13.626;2023-03-31T04:53:02;5.85;;;5.18;;
40290;SDS011;26000;48.304;13.626;2023-03-31T04:55:29;7.32;;;4.93;;
40290;SDS011;26000;48.304;13.626;2023-03-31T04:57:55;10.90;;;5.20;;
40290;SDS011;26000;48.304;13.626;2023-03-31T05:00:21;10.38;;;5.43;;
40290;SDS011;26000;48.304;13.626;2023-03-31T05:02:47;8.88;;;5.55;;
40290;SDS011;26000;48.304;13.626;2023-03-31T05:05:12;10.95;;;6.35;;
40290;SDS011;26000;48.304;13.626;2023-03-31T05:07:38;8.00;;;5.90;;
40290;SDS011;26000;48.304;13.626;2023-03-31T05:10:05;9.32;;;6.60;;
40290;SDS011;26000;48.304;13.626;2023-03-31T05:12:34;9.07;;;6.82;;
40290;SDS011;26000;48.304;13.626;2023-03-31T05:15:01;6.68;;;5.78;;
40290;SDS011;26000;48.304;13.626;2023-03-31T05:17:31;8.45;;;5.78;;
40290;SDS011;26000;48.304;13.626;2023-03-31T05:19:57;7.57;;;6.10;;
40290;SDS011;26000;48.304;13.626;2023-03-31T05:22:24;12.88;;;6.43;;
40290;SDS011;26000;48.304;13.626;2023-03-31T05:24:50;9.02;;;6.30;;
40290;SDS011;26000;48.304;13.626;2023-03-31T05:27:15;9.80;;;5.80;;
40290;SDS011;26000;48.304;13.626;2023-03-31T05:29:41;6.55;;;5.70;;
40290;SDS011;26000;48.304;13.626;2023-03-31T05:32:07;8.07;;;5.65;;
40290;SDS011;26000;48.304;13.626;2023-03-31T05:34:33;7.72;;;5.30;;
40290;SDS011;26000;48.304;13.626;2023-03-31T05:36:59;7.03;;;5.72;;
40290;SDS011;26000;48.304;13.626;2023-03-31T05:39:24;7.57;;;5.78;;
40290;SDS011;26000;48.304;13.626;2023-03-31T05:41:51;7.75;;;6.32;;
40290;SDS011;26000;48.304;13.626;2023-03-31T05:44:16;8.65;;;6.07;;
40290;SDS011;26000;48.304;13.626;2023-03-31T05:46:44;9.00;;;6.47;;
40290;SDS011;26000;48.304;13.626;2023-03-31T05:49:10;9.73;;;7.35;;
40290;SDS011;26000;48.304;13.626;2023-03-31T05:51:36;10.32;;;7.63;;
40290;SDS011;26000;48.304;13.626;2023-03-31T05:54:02;10.73;;;7.82;;
40290;SDS011;26000;48.304;13.626;2023-03-31T05:56:27;10.85;;;7.88;;
40290;SDS011;26000;48.304;13.626;2023-03-31T05:58:53;10.10;;;7.88;;
40290;SDS011;26000;48.304;13.626;2023-03-31T06:01:18;13.18;;;8.85;;
40290;SDS011;26000;48.304;13.626;2023-03-31T06:03:47;11.65;;;8.90;;
40290;SDS011;26000;48.304;13.626;2023-03-31T06:06:13;13.50;;;9.13;;
40290;SDS011;26000;48.304;13.626;2023-03-31T06:08:40;10.85;;;8.90;;
40290;SDS011;26000;48.304;13.626;2023-03-31T06:11:08;12.07;;;9.30;;
40290;SDS011;26000;48.304;13.626;2023-03-31T06:13:35;13.38;;;10.38;;
40290;SDS011;26000;48.304;13.626;2023-03-31T06:16:02;14.05;;;10.10;;
40290;SDS011;26000;48.304;13.626;2023-03-31T06:18:29;13.05;;;10.00;;
40290;SDS011;26000;48.304;13.626;2023-03-31T06:20:56;13.00;;;9.77;;
40290;SDS011;26000;48.304;13.626;2023-03-31T06:23:22;17.13;;;9.82;;
40290;SDS011;26000;48.304;13.626;2023-03-31T06:25:48;14.85;;;10.38;;
40290;SDS011;26000;48.304;13.626;2023-03-31T06:28:14;15.20;;;10.50;;
40290;SDS011;26000;48.304;13.626;2023-03-31T06:30:40;13.90;;;10.65;;
40290;SDS011;26000;48.304;13.626;2023-03-31T06:33:05;14.77;;;10.48;;
40290;SDS011;26000;48.304;13.626;2023-03-31T06:35:32;16.25;;;11.15;;
40290;SDS011;26000;48.304;13.626;2023-03-31T06:37:57;12.40;;;10.30;;
40290;SDS011;26000;48.304;13.626;2023-03-31T06:40:23;13.55;;;10.70;;
40290;SDS011;26000;48.304;13.626;2023-03-31T06:42:49;15.35;;;11.07;;
40290;SDS011;26000;48.304;13.626;2023-03-31T06:45:15;14.77;;;10.30;;
40290;SDS011;26000;48.304;13.626;2023-03-31T06:47:40;16.05;;;11.30;;
40290;SDS011;26000;48.304;13.626;2023-03-31T06:50:07;13.15;;;10.77;;
40290;SDS011;26000;48.304;13.626;2023-03-31T06:52:34;17.60;;;11.32;;
40290;SDS011;26000;48.304;13.626;2023-03-31T06:55:00;15.32;;;10.50;;
40290;SDS011;26000;48.304;13.626;2023-03-31T06:57:26;17.50;;;10.70;;
40290;SDS011;26000;48.304;13.626;2023-03-31T06:59:52;15.65;;;11.82;;
40290;SDS011;26000;48.304;13.626;2023-03-31T07:02:18;17.27;;;12.88;;
40290;SDS011;26000;48.304;13.626;2023-03-31T07:04:44;19.60;;;13.02;;
40290;SDS011;26000;48.304;13.626;2023-03-31T07:07:10;29.10;;;17.33;;
40290;SDS011;26000;48.304;13.626;2023-03-31T07:09:36;49.47;;;27.33;;
40290;SDS011;26000;48.304;13.626;2023-03-31T07:12:02;38.45;;;20.70;;
40290;SDS011;26000;48.304;13.626;2023-03-31T07:14:29;22.63;;;13.80;;
40290;SDS011;26000;48.304;13.626;2023-03-31T07:16:55;28.10;;;14.60;;
40290;SDS011;26000;48.304;13.626;2023-03-31T07:19:21;25.17;;;14.68;;
40290;SDS011;26000;48.304;13.626;2023-03-31T07:21:47;20.45;;;11.70;;
40290;SDS011;26000;48.304;13.626;2023-03-31T07:24:13;17.10;;;11.38;;
40290;SDS011;26000;48.304;13.626;2023-03-31T07:26:38;11.25;;;9.10;;
40290;SDS011;26000;48.304;13.626;2023-03-31T07:29:04;23.45;;;13.50;;
40290;SDS011;26000;48.304;13.626;2023-03-31T07:31:30;24.17;;;14.60;;
40290;SDS011;26000;48.304;13.626;2023-03-31T07:33:56;60.60;;;31.77;;
40290;SDS011;26000;48.304;13.626;2023-03-31T07:36:21;18.17;;;11.57;;
40290;SDS011;26000;48.304;13.626;2023-03-31T07:38:47;12.73;;;9.60;;
40290;SDS011;26000;48.304;13.626;2023-03-31T07:41:15;13.63;;;9.20;;
40290;SDS011;26000;48.304;13.626;2023-03-31T07:43:42;12.88;;;9.57;;
40290;SDS011;26000;48.304;13.626;2023-03-31T07:46:41;16.15;;;9.88;;
40290;SDS011;26000;48.304;13.626;2023-03-31T07:49:00;17.75;;;10.40;;
40290;SDS011;26000;48.304;13.626;2023-03-31T07:51:27;17.02;;;9.98;;
40290;SDS011;26000;48.304;13.626;2023-03-31T07:53:52;16.67;;;10.82;;
40290;SDS011;26000;48.304;13.626;2023-03-31T07:56:22;13.00;;;9.63;;
40290;SDS011;26000;48.304;13.626;2023-03-31T07:58:49;13.02;;;9.75;;
40290;SDS011;26000;48.304;13.626;2023-03-31T08:01:17;15.35;;;10.88;;
40290;SDS011;26000;48.304;13.626;2023-03-31T08:03:44;13.57;;;10.52;;
40290;SDS011;26000;48.304;13.626;2023-03-31T08:06:11;14.95;;;10.30;;
40290;SDS011;26000;48.304;13.626;2023-03-31T08:08:43;14.77;;;9.75;;
40290;SDS011;26000;48.304;13.626;2023-03-31T08:11:08;15.63;;;9.90;;
40290;SDS011;26000;48.304;13.626;2023-03-31T08:13:34;12.23;;;9.18;;
40290;SDS011;26000;48.304;13.626;2023-03-31T08:16:00;13.25;;;9.32;;
40290;SDS011;26000;48.304;13.626;2023-03-31T08:18:26;14.13;;;9.85;;
40290;SDS011;26000;48.304;13.626;2023-03-31T08:20:51;14.82;;;10.00;;
40290;SDS011;26000;48.304;13.626;2023-03-31T08:23:17;16.08;;;10.38;;
40290;SDS011;26000;48.304;13.626;2023-03-31T08:25:43;15.02;;;9.88;;
40290;SDS011;26000;48.304;13.626;2023-03-31T08:28:08;13.30;;;9.15;;
40290;SDS011;26000;48.304;13.626;2023-03-31T08:30:38;13.90;;;10.32;;
40290;SDS011;26000;48.304;13.626;2023-03-31T08:33:04;14.65;;;9.88;;
40290;SDS011;26000;48.304;13.626;2023-03-31T08:35:31;14.27;;;9.75;;
40290;SDS011;26000;48.304;13.626;2023-03-31T08:37:58;13.77;;;10.13;;
40290;SDS011;26000;48.304;13.626;2023-03-31T08:40:24;17.65;;;10.80;;
40290;SDS011;26000;48.304;13.626;2023-03-31T08:42:54;18.17;;;10.75;;
40290;SDS011;26000;48.304;13.626;2023-03-31T08:45:33;15.48;;;10.02;;
40290;SDS011;26000;48.304;13.626;2023-03-31T08:48:03;17.98;;;11.25;;
40290;SDS011;26000;48.304;13.626;2023-03-31T08:50:35;16.38;;;10.68;;
40290;SDS011;26000;48.304;13.626;2023-03-31T08:53:22;14.10;;;10.35;;
40290;SDS011;26000;48.304;13.626;2023-03-31T08:55:53;12.85;;;10.90;;
40290;SDS011;26000;48.304;13.626;2023-03-31T08:58:28;19.85;;;11.00;;
40290;SDS011;26000;48.304;13.626;2023-03-31T09:07:10;15.00;;;11.07;;
40290;SDS011;26000;48.304;13.626;2023-03-31T09:09:51;14.45;;;10.90;;
40290;SDS011;26000;48.304;13.626;2023-03-31T09:15:11;15.13;;;10.95;;
40290;SDS011;26000;48.304;13.626;2023-03-31T09:17:46;16.90;;;10.57;;
40290;SDS011;26000;48.304;13.626;2023-03-31T09:20:16;15.05;;;10.93;;
40290;SDS011;26000;48.304;13.626;2023-03-31T09:22:51;22.10;;;13.40;;
40290;SDS011;26000;48.304;13.626;2023-03-31T09:25:26;26.65;;;17.40;;
40290;SDS011;26000;48.304;13.626;2023-03-31T09:27:58;24.48;;;15.90;;
40290;SDS011;26000;48.304;13.626;2023-03-31T09:30:27;14.68;;;10.88;;
40290;SDS011;26000;48.304;13.626;2023-03-31T09:33:16;16.48;;;11.48;;
40290;SDS011;26000;48.304;13.626;2023-03-31T09:35:52;15.95;;;11.90;;
40290;SDS011;26000;48.304;13.626;2023-03-31T09:38:18;29.63;;;20.08;;
40290;SDS011;26000;48.304;13.626;2023-03-31T09:40:43;20.90;;;15.20;;
40290;SDS011;26000;48.304;13.626;2023-03-31T09:43:16;17.80;;;12.82;;
40290;SDS011;26000;48.304;13.626;2023-03-31T09:45:46;16.08;;;11.98;;
40290;SDS011;26000;48.304;13.626;2023-03-31T09:48:17;16.42;;;11.80;;
40290;SDS011;26000;48.304;13.626;2023-03-31T09:50:52;21.15;;;12.57;;
40290;SDS011;26000;48.304;13.626;2023-03-31T09:53:39;18.63;;;12.48;;
40290;SDS011;26000;48.304;13.626;2023-03-31T09:56:10;15.57;;;12.02;;
40290;SDS011;26000;48.304;13.626;2023-03-31T09:58:43;24.27;;;15.13;;
40290;SDS011;26000;48.304;13.626;2023-03-31T10:01:13;21.63;;;13.23;;
40290;SDS011;26000;48.304;13.626;2023-03-31T10:06:18;19.38;;;12.02;;
40290;SDS011;26000;48.304;13.626;2023-03-31T10:09:01;15.93;;;10.80;;
40290;SDS011;26000;48.304;13.626;2023-03-31T10:11:29;15.77;;;11.43;;
40290;SDS011;26000;48.304;13.626;2023-03-31T10:14:13;19.40;;;11.45;;
40290;SDS011;26000;48.304;13.626;2023-03-31T10:16:43;18.90;;;12.32;;
40290;SDS011;26000;48.304;13.626;2023-03-31T10:19:21;14.20;;;11.30;;
40290;SDS011;26000;48.304;13.626;2023-03-31T10:21:54;16.70;;;12.95;;
40290;SDS011;26000;48.304;13.626;2023-03-31T10:24:22;20.83;;;12.15;;
40290;SDS011;26000;48.304;13.626;2023-03-31T10:26:49;15.45;;;10.93;;
40290;SDS011;26000;48.304;13.626;2023-03-31T10:29:22;17.38;;;11.23;;
40290;SDS011;26000;48.304;13.626;2023-03-31T10:31:53;15.98;;;11.80;;
40290;SDS011;26000;48.304;13.626;2023-03-31T10:34:19;16.30;;;12.20;;
40290;SDS011;26000;48.304;13.626;2023-03-31T10:36:48;17.70;;;11.60;;
40290;SDS011;26000;48.304;13.626;2023-03-31T10:39:18;18.58;;;11.52;;
40290;SDS011;26000;48.304;13.626;2023-03-31T10:41:51;18.58;;;11.88;;
40290;SDS011;26000;48.304;13.626;2023-03-31T10:44:30;16.77;;;11.10;;
40290;SDS011;26000;48.304;13.626;2023-03-31T10:47:04;18.35;;;11.30;;
40290;SDS011;26000;48.304;13.626;2023-03-31T10:49:40;15.40;;;11.13;;
40290;SDS011;26000;48.304;13.626;2023-03-31T10:52:17;18.98;;;12.23;;
40290;SDS011;26000;48.304;13.626;2023-03-31T10:54:52;18.40;;;10.35;;
40290;SDS011;26000;48.304;13.626;2023-03-31T10:57:29;14.27;;;9.90;;
40290;SDS011;26000;48.304;13.626;2023-03-31T11:00:30;17.38;;;10.52;;
40290;SDS011;26000;48.304;13.626;2023-03-31T11:12:04;12.48;;;7.47;;
40290;SDS011;26000;48.304;13.626;2023-03-31T11:14:37;11.20;;;8.18;;
40290;SDS011;26000;48.304;13.626;2023-03-31T11:20:00;11.40;;;7.40;;
40290;SDS011;26000;48.304;13.626;2023-03-31T11:22:45;8.95;;;6.28;;
40290;SDS011;26000;48.304;13.626;2023-03-31T11:36:59;7.45;;;4.60;;
40290;SDS011;26000;48.304;13.626;2023-03-31T11:45:11;6.55;;;4.75;;
40290;SDS011;26000;48.304;13.626;2023-03-31T11:47:45;12.68;;;5.15;;
40290;SDS011;26000;48.304;13.626;2023-03-31T11:50:15;6.10;;;4.82;;
40290;SDS011;26000;48.304;13.626;2023-03-31T11:53:01;6.25;;;4.78;;
40290;SDS011;26000;48.304;13.626;2023-03-31T11:55:30;7.57;;;5.55;;
40290;SDS011;26000;48.304;13.626;2023-03-31T11:58:01;16.30;;;9.70;;
40290;SDS011;26000;48.304;13.626;2023-03-31T12:00:31;21.23;;;18.17;;
40290;SDS011;26000;48.304;13.626;2023-03-31T12:03:15;9.90;;;7.30;;
40290;SDS011;26000;48.304;13.626;2023-03-31T12:05:56;11.20;;;6.13;;
40290;SDS011;26000;48.304;13.626;2023-03-31T12:11:13;7.30;;;5.00;;
40290;SDS011;26000;48.304;13.626;2023-03-31T12:16:16;6.88;;;4.93;;
40290;SDS011;26000;48.304;13.626;2023-03-31T12:21:31;8.48;;;5.13;;
40290;SDS011;26000;48.304;13.626;2023-03-31T12:24:00;9.05;;;5.20;;
40290;SDS011;26000;48.304;13.626;2023-03-31T12:26:38;6.88;;;5.07;;
40290;SDS011;26000;48.304;13.626;2023-03-31T12:29:28;6.55;;;5.32;;
40290;SDS011;26000;48.304;13.626;2023-03-31T12:31:58;7.65;;;5.78;;
40290;SDS011;26000;48.304;13.626;2023-03-31T12:34:28;9.75;;;6.97;;
40290;SDS011;26000;48.304;13.626;2023-03-31T12:39:43;8.75;;;5.50;;
40290;SDS011;26000;48.304;13.626;2023-03-31T12:45:01;8.70;;;5.43;;
40290;SDS011;26000;48.304;13.626;2023-03-31T12:48:00;7.18;;;5.30;;
40290;SDS011;26000;48.304;13.626;2023-03-31T12:50:47;8.27;;;6.10;;
40290;SDS011;26000;48.304;13.626;2023-03-31T12:59:38;10.48;;;6.53;;
40290;SDS011;26000;48.304;13.626;2023-03-31T13:04:35;7.93;;;5.60;;
40290;SDS011;26000;48.304;13.626;2023-03-31T13:07:02;7.85;;;5.25;;
40290;SDS011;26000;48.304;13.626;2023-03-31T13:12:13;5.60;;;3.05;;
40290;SDS011;26000;48.304;13.626;2023-03-31T13:14:44;4.57;;;2.88;;
40290;SDS011;26000;48.304;13.626;2023-03-31T13:17:17;4.13;;;2.78;;
40290;SDS011;26000;48.304;13.626;2023-03-31T13:19:47;3.50;;;2.83;;
40290;SDS011;26000;48.304;13.626;2023-03-31T13:22:32;3.35;;;2.80;;
40290;SDS011;26000;48.304;13.626;2023-03-31T13:27:57;3.42;;;2.85;;
40290;SDS011;26000;48.304;13.626;2023-03-31T13:35:45;4.22;;;3.10;;
40290;SDS011;26000;48.304;13.626;2023-03-31T13:38:34;6.88;;;3.35;;
40290;SDS011;26000;48.304;13.626;2023-03-31T13:41:12;7.80;;;3.10;;
40290;SDS011;26000;48.304;13.626;2023-03-31T13:50:45;5.55;;;3.30;;
40290;SDS011;26000;48.304;13.626;2023-03-31T14:07:29;7.85;;;4.20;;
40290;SDS011;26000;48.304;13.626;2023-03-31T14:10:00;4.60;;;3.90;;
40290;SDS011;26000;48.304;13.626;2023-03-31T14:12:36;5.15;;;3.58;;
40290;SDS011;26000;48.304;13.626;2023-03-31T14:15:03;4.68;;;3.53;;
40290;SDS011;26000;48.304;13.626;2023-03-31T14:17:36;4.40;;;3.33;;
40290;SDS011;26000;48.304;13.626;2023-03-31T14:20:13;4.63;;;3.70;;
40290;SDS011;26000;48.304;13.626;2023-03-31T14:33:42;11.05;;;6.07;;
40290;SDS011;26000;48.304;13.626;2023-03-31T14:41:34;9.15;;;5.50;;
40290;SDS011;26000;48.304;13.626;2023-03-31T14:44:02;8.38;;;4.95;;
40290;SDS011;26000;48.304;13.626;2023-03-31T14:46:30;5.55;;;4.55;;
40290;SDS011;26000;48.304;13.626;2023-03-31T14:49:05;7.22;;;4.53;;
40290;SDS011;26000;48.304;13.626;2023-03-31T14:51:42;6.47;;;4.18;;
40290;SDS011;26000;48.304;13.626;2023-03-31T14:54:14;20.83;;;10.90;;
40290;SDS011;26000;48.304;13.626;2023-03-31T14:56:42;8.55;;;5.38;;
40290;SDS011;26000;48.304;13.626;2023-03-31T14:59:12;5.13;;;3.60;;
40290;SDS011;26000;48.304;13.626;2023-03-31T15:01:48;6.65;;;3.65;;
40290;SDS011;26000;48.304;13.626;2023-03-31T15:04:16;11.70;;;9.38;;
40290;SDS011;26000;48.304;13.626;2023-03-31T15:06:45;6.45;;;4.20;;
40290;SDS011;26000;48.304;13.626;2023-03-31T15:09:34;5.55;;;4.07;;
40290;SDS011;26000;48.304;13.626;2023-03-31T15:12:00;6.50;;;4.15;;
40290;SDS011;26000;48.304;13.626;2023-03-31T15:14:32;5.53;;;3.50;;
40290;SDS011;26000;48.304;13.626;2023-03-31T15:17:00;4.80;;;3.13;;
40290;SDS011;26000;48.304;13.626;2023-03-31T15:19:28;5.20;;;3.15;;
40290;SDS011;26000;48.304;13.626;2023-03-31T15:21:56;5.43;;;3.28;;
40290;SDS011;26000;48.304;13.626;2023-03-31T15:24:29;4.93;;;2.95;;
40290;SDS011;26000;48.304;13.626;2023-03-31T15:29:48;4.65;;;3.03;;
40290;SDS011;26000;48.304;13.626;2023-03-31T15:32:34;6.53;;;2.58;;
40290;SDS011;26000;48.304;13.626;2023-03-31T15:35:02;5.10;;;2.83;;
40290;SDS011;26000;48.304;13.626;2023-03-31T15:37:38;5.13;;;3.50;;
40290;SDS011;26000;48.304;13.626;2023-03-31T15:40:10;4.47;;;3.05;;
40290;SDS011;26000;48.304;13.626;2023-03-31T15:42:48;6.80;;;3.28;;
40290;SDS011;26000;48.304;13.626;2023-03-31T15:47:55;4.40;;;3.13;;
40290;SDS011;26000;48.304;13.626;2023-03-31T15:50:21;6.38;;;3.20;;
40290;SDS011;26000;48.304;13.626;2023-03-31T15:57:53;3.80;;;2.40;;
40290;SDS011;26000;48.304;13.626;2023-03-31T16:02:57;4.55;;;2.30;;
40290;SDS011;26000;48.304;13.626;2023-03-31T16:08:20;4.63;;;2.50;;
40290;SDS011;26000;48.304;13.626;2023-03-31T16:11:02;3.80;;;2.38;;
40290;SDS011;26000;48.304;13.626;2023-03-31T16:13:32;4.13;;;2.35;;
40290;SDS011;26000;48.304;13.626;2023-03-31T16:16:04;5.47;;;2.33;;
40290;SDS011;26000;48.304;13.626;2023-03-31T16:18:42;7.68;;;2.40;;
40290;SDS011;26000;48.304;13.626;2023-03-31T16:21:13;5.85;;;2.70;;
40290;SDS011;26000;48.304;13.626;2023-03-31T16:23:54;4.53;;;3.10;;
40290;SDS011;26000;48.304;13.626;2023-03-31T16:26:24;5.82;;;2.72;;
40290;SDS011;26000;48.304;13.626;2023-03-31T16:28:52;5.82;;;4.05;;
40290;SDS011;26000;48.304;13.626;2023-03-31T16:34:00;5.05;;;2.53;;
40290;SDS011;26000;48.304;13.626;2023-03-31T16:36:27;4.90;;;3.35;;
40290;SDS011;26000;48.304;13.626;2023-03-31T16:38:53;5.43;;;2.70;;
40290;SDS011;26000;48.304;13.626;2023-03-31T16:41:19;4.53;;;2.58;;
40290;SDS011;26000;48.304;13.626;2023-03-31T16:43:47;5.38;;;2.80;;
40290;SDS011;26000;48.304;13.626;2023-03-31T16:46:16;2.85;;;2.33;;
40290;SDS011;26000;48.304;13.626;2023-03-31T16:48:42;9.48;;;6.13;;
40290;SDS011;26000;48.304;13.626;2023-03-31T16:51:07;7.05;;;4.20;;
40290;SDS011;26000;48.304;13.626;2023-03-31T16:53:33;4.07;;;2.58;;
40290;SDS011;26000;48.304;13.626;2023-03-31T16:56:01;5.13;;;2.35;;
40290;SDS011;26000;48.304;13.626;2023-03-31T16:58:28;4.10;;;2.08;;
40290;SDS011;26000;48.304;13.626;2023-03-31T17:00:55;2.67;;;2.10;;
40290;SDS011;26000;48.304;13.626;2023-03-31T17:03:22;4.03;;;2.33;;
40290;SDS011;26000;48.304;13.626;2023-03-31T17:05:52;3.40;;;1.92;;
40290;SDS011;26000;48.304;13.626;2023-03-31T17:08:21;3.22;;;2.03;;
40290;SDS011;26000;48.304;13.626;2023-03-31T17:10:54;2.78;;;2.00;;
40290;SDS011;26000;48.304;13.626;2023-03-31T17:13:28;8.25;;;2.80;;
40290;SDS011;26000;48.304;13.626;2023-03-31T17:15:54;3.80;;;2.35;;
40290;SDS011;26000;48.304;13.626;2023-03-31T17:18:20;3.45;;;2.10;;
40290;SDS011;26000;48.304;13.626;2023-03-31T17:20:46;3.72;;;2.45;;
40290;SDS011;26000;48.304;13.626;2023-03-31T17:23:11;7.30;;;3.50;;
40290;SDS011;26000;48.304;13.626;2023-03-31T17:25:37;5.70;;;3.13;;
40290;SDS011;26000;48.304;13.626;2023-03-31T17:28:03;4.40;;;2.95;;
40290;SDS011;26000;48.304;13.626;2023-03-31T17:30:29;8.02;;;3.65;;
40290;SDS011;26000;48.304;13.626;2023-03-31T17:32:56;16.23;;;9.40;;
40290;SDS011;26000;48.304;13.626;2023-03-31T17:35:22;35.20;;;20.67;;
40290;SDS011;26000;48.304;13.626;2023-03-31T17:37:49;16.83;;;10.35;;
40290;SDS011;26000;48.304;13.626;2023-03-31T17:40:18;12.85;;;9.15;;
40290;SDS011;26000;48.304;13.626;2023-03-31T17:42:44;12.38;;;8.25;;
40290;SDS011;26000;48.304;13.626;2023-03-31T17:45:11;9.63;;;6.35;;